Time;durP1;ratioP1;P1;durP2;ratioP2;P2;SDS_P1;SDS_P2;PMS_P1;PMS_P2;Temp;Humidity;BMP_temperature;BMP_pressure;BME280_temperature;BME280_humidity;BME280_pressure;Samples;Min_cycle;Max_cycle;Signal;HPM_P1;HPM_P2
2023/10/08 00:01:43;;;;;;;1.73;1.15;;;15.20;99.90;;;;;;5031155;28;20048;-75
2023/10/08 00:04:18;;;;;;;0.85;0.68;;;15.10;99.90;;;;;;5031692;28;20045;-76
2023/10/08 00:06:46;;;;;;;1.15;1.05;;;15.00;99.90;;;;;;5031076;28;20421;-74
2023/10/08 00:09:14;;;;;;;1.35;0.75;;;14.90;99.90;;;;;;5031836;28;20360;-74
2023/10/08 00:11:40;;;;;;;2.72;0.68;;;14.90;99.90;;;;;;5030790;28;20029;-75
2023/10/08 00:14:10;;;;;;;3.90;0.50;;;14.90;99.90;;;;;;5030160;28;20037;-75
2023/10/08 00:16:40;;;;;;;0.95;0.68;;;14.90;99.90;;;;;;5027557;28;20041;-75
2023/10/08 00:19:14;;;;;;;0.95;0.52;;;14.90;99.90;;;;;;5029029;28;20029;-75
2023/10/08 00:21:44;;;;;;;0.60;0.55;;;14.80;99.90;;;;;;5029872;28;20037;-74
2023/10/08 00:24:12;;;;;;;0.32;0.28;;;14.90;99.90;;;;;;5030010;28;20387;-75
2023/10/08 00:26:41;;;;;;;0.63;0.43;;;14.80;99.90;;;;;;5030528;28;20399;-75
2023/10/08 00:29:21;;;;;;;1.20;0.68;;;14.80;99.90;;;;;;5031362;28;20494;-75
2023/10/08 00:31:49;;;;;;;0.30;0.30;;;14.70;99.90;;;;;;5045407;28;20041;-74
2023/10/08 00:34:19;;;;;;;0.57;0.43;;;14.60;99.90;;;;;;5046509;28;20155;-74
2023/10/08 00:36:49;;;;;;;0.15;0.15;;;14.60;99.90;;;;;;5030748;28;20040;-74
2023/10/08 00:39:22;;;;;;;;;;;14.50;99.90;;;;;;5031165;28;20037;-75
2023/10/08 00:41:50;;;;;;;3.60;0.20;;;14.40;99.90;;;;;;5029223;28;19916;-74
2023/10/08 00:44:22;;;;;;;0.70;0.65;;;14.30;99.90;;;;;;5028481;28;20033;-74
2023/10/08 00:46:50;;;;;;;0.17;0.17;;;14.20;99.90;;;;;;5030895;28;20049;-76
2023/10/08 00:52:26;;;;;;;0.28;0.28;;;14.10;99.90;;;;;;5007958;28;20049;-73
2023/10/08 00:57:36;;;;;;;0.30;0.30;;;13.90;99.90;;;;;;5005774;28;20038;-83
2023/10/08 01:00:06;;;;;;;2.65;0.77;;;13.80;99.90;;;;;;4991544;28;20172;-74
2023/10/08 01:02:46;;;;;;;1.13;0.40;;;13.70;99.90;;;;;;5008151;28;20092;-82
2023/10/08 01:05:23;;;;;;;0.38;0.38;;;13.70;99.90;;;;;;5008031;28;20368;-73
2023/10/08 01:07:51;;;;;;;6.45;1.35;;;13.60;99.90;;;;;;5008334;28;20029;-74
2023/10/08 01:10:20;;;;;;;1.17;0.95;;;13.60;99.90;;;;;;4991823;28;20045;-75
2023/10/08 01:13:05;;;;;;;2.28;0.98;;;13.50;99.90;;;;;;5023795;28;20042;-74
2023/10/08 01:15:35;;;;;;;0.50;0.40;;;13.40;99.90;;;;;;5008806;28;20041;-73
2023/10/08 01:18:08;;;;;;;0.80;0.32;;;13.30;1.00;;;;;;5008631;28;20040;-74
2023/10/08 01:20:38;;;;;;;1.83;1.02;;;13.30;1.00;;;;;;5008028;28;20050;-74
2023/10/08 01:23:10;;;;;;;0.30;0.20;;;13.10;1.00;;;;;;5018161;28;20442;-74
2023/10/08 01:25:38;;;;;;;3.50;1.77;;;13.00;1.00;;;;;;5027718;28;20032;-74
2023/10/08 01:28:14;;;;;;;0.90;0.80;;;13.00;1.00;;;;;;5031548;28;20052;-74
2023/10/08 01:30:46;;;;;;;0.50;0.50;;;12.90;1.00;;;;;;5033254;28;20046;-74
2023/10/08 01:33:15;;;;;;;0.95;0.60;;;12.90;1.00;;;;;;5034499;28;20048;-74
2023/10/08 01:35:42;;;;;;;0.20;0.20;;;13.00;1.00;;;;;;5034333;28;20025;-76
2023/10/08 01:38:13;;;;;;;0.85;0.75;;;12.90;1.00;;;;;;5033373;28;20033;-75
2023/10/08 01:40:42;;;;;;;3.63;1.23;;;12.90;1.00;;;;;;5034116;28;20036;-75
2023/10/08 01:43:10;;;;;;;1.48;0.75;;;12.80;1.00;;;;;;5034073;28;20029;-75
2023/10/08 01:45:40;;;;;;;0.30;0.30;;;12.80;1.00;;;;;;5034205;28;20041;-74
2023/10/08 01:48:09;;;;;;;0.60;0.60;;;12.80;1.00;;;;;;5034713;28;20415;-75
2023/10/08 01:50:38;;;;;;;2.00;0.80;;;12.70;1.00;;;;;;5034258;28;20044;-82
2023/10/08 01:53:10;;;;;;;1.35;0.75;;;12.70;1.00;;;;;;5034429;28;20506;-74
2023/10/08 01:55:45;;;;;;;0.40;0.40;;;12.60;1.00;;;;;;5033843;28;20033;-76
2023/10/08 01:58:16;;;;;;;0.68;0.63;;;12.60;1.00;;;;;;5038620;28;20041;-75
2023/10/08 02:00:45;;;;;;;;;;;12.50;7.80;;;;;;5040477;28;20466;-75
2023/10/08 02:03:15;;;;;;;1.15;0.73;;;12.40;16.00;;;;;;5032458;28;19917;-74
2023/10/08 02:05:42;;;;;;;0.40;0.35;;;12.40;39.40;;;;;;5033713;28;20033;-74
2023/10/08 02:08:13;;;;;;;0.40;0.40;;;12.40;46.50;;;;;;5034414;28;20433;-74
2023/10/08 02:10:42;;;;;;;1.52;0.70;;;12.30;50.90;;;;;;5031750;28;20124;-74
2023/10/08 02:13:10;;;;;;;0.20;0.17;;;12.30;46.90;;;;;;5033623;28;20046;-74
2023/10/08 02:15:40;;;;;;;2.38;0.77;;;12.30;54.40;;;;;;5033938;28;20038;-81
2023/10/08 02:18:06;;;;;;;0.50;0.50;;;12.30;60.20;;;;;;5033398;28;20045;-75
2023/10/08 02:20:33;;;;;;;1.65;0.50;;;12.30;61.90;;;;;;5033959;28;20037;-74
2023/10/08 02:23:00;;;;;;;2.72;1.20;;;12.30;63.80;;;;;;5032383;28;20030;-74
2023/10/08 02:25:27;;;;;;;0.20;0.20;;;12.20;68.20;;;;;;5033675;28;20390;-74
2023/10/08 02:27:53;;;;;;;0.82;0.57;;;12.20;75.90;;;;;;5048536;28;20109;-75
2023/10/08 02:30:20;;;;;;;1.17;0.77;;;12.20;59.40;;;;;;5033220;28;20073;-74
2023/10/08 02:32:46;;;;;;;1.00;0.55;;;12.10;66.80;;;;;;5032985;28;20505;-74
2023/10/08 02:35:13;;;;;;;0.63;0.52;;;12.10;87.40;;;;;;5033924;28;20037;-74
2023/10/08 02:37:40;;;;;;;1.27;0.47;;;12.00;99.90;;;;;;5032983;28;20328;-75
2023/10/08 02:40:19;;;;;;;4.10;0.65;;;12.10;99.90;;;;;;5033247;28;20029;-75
2023/10/08 02:42:48;;;;;;;0.52;0.45;;;12.20;99.90;;;;;;5030041;28;20034;-75
2023/10/08 02:45:16;;;;;;;0.35;0.35;;;12.30;95.60;;;;;;5036872;28;20489;-75
2023/10/08 02:47:45;;;;;;;0.10;0.10;;;12.30;85.60;;;;;;5035059;28;20040;-75
2023/10/08 02:50:12;;;;;;;0.40;0.40;;;12.30;73.40;;;;;;5031373;28;20486;-74
2023/10/08 02:52:38;;;;;;;0.50;0.50;;;12.30;52.50;;;;;;5033324;28;20037;-81
2023/10/08 02:55:05;;;;;;;2.83;1.33;;;12.20;53.10;;;;;;5033307;28;20033;-75
2023/10/08 02:57:43;;;;;;;0.55;0.55;;;12.10;66.60;;;;;;5032786;28;20481;-83
2023/10/08 03:00:13;;;;;;;1.95;1.48;;;12.00;93.20;;;;;;5031020;28;20057;-77
2023/10/08 03:02:39;;;;;;;0.20;0.20;;;11.90;98.90;;;;;;5032870;28;20048;-83
2023/10/08 03:05:08;;;;;;;0.22;0.22;;;11.90;99.90;;;;;;5032625;28;20037;-74
2023/10/08 03:07:35;;;;;;;0.47;0.43;;;11.80;99.90;;;;;;5038692;28;20041;-75
2023/10/08 03:10:17;;;;;;;0.40;0.40;;;11.80;99.90;;;;;;5037039;28;20041;-75
2023/10/08 03:12:47;;;;;;;0.70;0.70;;;11.70;99.90;;;;;;5024726;28;20049;-75
2023/10/08 03:15:28;;;;;;;1.23;1.08;;;11.70;99.90;;;;;;5032867;28;20033;-74
2023/10/08 03:17:57;;;;;;;0.45;0.45;;;11.70;99.90;;;;;;5030318;28;20048;-74
2023/10/08 03:23:12;;;;;;;0.85;0.85;;;11.70;99.90;;;;;;5029989;28;20041;-74
2023/10/08 03:25:41;;;;;;;1.75;1.00;;;11.60;99.90;;;;;;5032244;28;20034;-74
2023/10/08 03:28:09;;;;;;;0.55;0.52;;;11.60;99.90;;;;;;5032576;28;20036;-74
2023/10/08 03:30:47;;;;;;;1.15;0.55;;;11.60;99.90;;;;;;5032702;28;20064;-74
2023/10/08 03:33:22;;;;;;;1.75;1.60;;;11.60;99.90;;;;;;5047649;28;20097;-74
2023/10/08 03:35:52;;;;;;;1.02;0.45;;;11.60;99.90;;;;;;5031637;28;20033;-74
2023/10/08 03:38:44;;;;;;;1.05;0.52;;;11.60;99.90;;;;;;5046124;28;20502;-74
2023/10/08 03:41:16;;;;;;;0.75;0.57;;;11.60;99.90;;;;;;5032012;28;20041;-74
2023/10/08 03:43:52;;;;;;;1.90;0.98;;;11.70;99.90;;;;;;5031528;28;20045;-77
2023/10/08 03:46:22;;;;;;;0.77;0.40;;;11.70;99.90;;;;;;5029987;28;20025;-74
2023/10/08 03:48:51;;;;;;;0.57;0.57;;;11.80;99.90;;;;;;5031673;28;20034;-74
2023/10/08 03:51:20;;;;;;;2.30;1.42;;;11.80;99.90;;;;;;5031719;28;20033;-74
2023/10/08 03:53:58;;;;;;;0.93;0.88;;;11.90;99.90;;;;;;5031138;28;20037;-73
2023/10/08 03:56:29;;;;;;;0.93;0.93;;;11.90;99.90;;;;;;5031850;28;20121;-74
2023/10/08 03:58:55;;;;;;;;;;;11.90;99.90;;;;;;5031577;28;20036;-76
2023/10/08 04:01:23;;;;;;;3.28;1.70;;;11.80;99.90;;;;;;5032216;28;19917;-74
2023/10/08 04:06:28;;;;;;;2.38;1.02;;;11.70;99.90;;;;;;5030448;28;20029;-75
2023/10/08 04:09:10;;;;;;;0.52;0.52;;;11.60;99.90;;;;;;5030721;28;20041;-74
2023/10/08 04:11:56;;;;;;;0.77;0.77;;;11.50;99.90;;;;;;5030907;28;20501;-74
2023/10/08 04:14:24;;;;;;;0.40;0.40;;;11.60;99.90;;;;;;5030978;28;20034;-74
2023/10/08 04:16:51;;;;;;;0.75;0.75;;;11.50;99.90;;;;;;5031160;28;20021;-74
2023/10/08 04:19:26;;;;;;;2.85;0.82;;;11.40;99.90;;;;;;5031061;28;20021;-74
2023/10/08 04:21:56;;;;;;;1.05;0.95;;;11.30;99.90;;;;;;5031407;28;20105;-74
2023/10/08 04:24:34;;;;;;;1.17;0.85;;;11.20;99.90;;;;;;5031801;28;20021;-74
2023/10/08 04:27:05;;;;;;;0.55;0.55;;;11.20;99.90;;;;;;5030520;28;20034;-76
2023/10/08 04:29:32;;;;;;;0.60;0.52;;;11.10;99.90;;;;;;5031751;28;20025;-74
2023/10/08 04:32:07;;;;;;;1.10;0.73;;;11.10;99.90;;;;;;5031091;28;20328;-76
2023/10/08 04:34:34;;;;;;;0.47;0.47;;;11.10;99.90;;;;;;5029934;28;20120;-74
2023/10/08 04:37:02;;;;;;;3.50;1.42;;;11.10;1.00;;;;;;5030846;28;20040;-74
2023/10/08 04:39:34;;;;;;;1.75;1.13;;;11.10;1.00;;;;;;5031348;28;20036;-74
2023/10/08 04:42:10;;;;;;;1.52;1.42;;;11.10;1.00;;;;;;5030988;28;20367;-75
2023/10/08 04:44:40;;;;;;;1.27;1.17;;;11.20;1.00;;;;;;5031710;28;20037;-74
2023/10/08 04:47:31;;;;;;;1.65;1.27;;;11.30;1.00;;;;;;5030177;28;20398;-73
2023/10/08 04:49:53;;;;;;;1.40;1.05;;;11.30;1.00;;;;;;5030009;28;20037;-74
2023/10/08 04:52:20;;;;;;;2.92;1.05;;;11.40;1.00;;;;;;5031119;28;20033;-74
2023/10/08 04:54:51;;;;;;;0.60;0.45;;;11.40;99.90;;;;;;5030867;28;20376;-83
2023/10/08 04:57:18;;;;;;;;;;;11.30;99.90;;;;;;5030924;28;20048;-74
2023/10/08 04:59:46;;;;;;;1.77;1.05;;;11.30;99.90;;;;;;5029154;28;19918;-74
2023/10/08 05:10:11;;;;;;;18.98;1.73;;;11.20;99.90;;;;;;5030928;28;20021;-74
2023/10/08 05:12:38;;;;;;;0.40;0.40;;;11.30;99.90;;;;;;5031033;28;20467;-73
2023/10/08 05:20:40;;;;;;;1.80;1.02;;;11.40;99.90;;;;;;5037506;28;20041;-74
2023/10/08 05:23:20;;;;;;;0.75;0.75;;;11.50;99.90;;;;;;5029193;28;20049;-74
2023/10/08 05:29:00;;;;;;;0.50;0.50;;;11.50;99.90;;;;;;5031096;28;20037;-73
2023/10/08 05:32:38;;;;;;;0.65;0.47;;;11.60;99.90;;;;;;5029565;28;20037;-75
2023/10/08 05:34:33;;;;;;;1.15;1.00;;;11.60;99.90;;;;;;5024576;28;20046;-74
2023/10/08 05:39:42;;;;;;;1.08;0.73;;;11.60;99.90;;;;;;5030549;28;20033;-74
2023/10/08 05:42:19;;;;;;;1.55;1.00;;;11.70;99.90;;;;;;5028048;28;20041;-75
2023/10/08 05:45:05;;;;;;;1.70;0.90;;;11.70;99.90;;;;;;5028496;28;20040;-74
2023/10/08 05:50:38;;;;;;;0.90;0.68;;;11.70;99.90;;;;;;5030132;28;20033;-74
2023/10/08 05:55:27;;;;;;;1.33;0.65;;;11.60;99.90;;;;;;5030187;28;20040;-74
2023/10/08 05:58:13;;;;;;;1.50;1.40;;;11.60;99.90;;;;;;5041587;28;20041;-74
2023/10/08 06:01:05;;;;;;;2.10;0.73;;;11.60;99.90;;;;;;5029692;28;20491;-74
2023/10/08 06:03:32;;;;;;;0.73;0.40;;;11.70;99.90;;;;;;5027978;28;20042;-74
2023/10/08 06:06:22;;;;;;;0.88;0.73;;;11.80;99.90;;;;;;5029738;28;20052;-74
2023/10/08 06:09:04;;;;;;;0.35;0.35;;;11.80;99.90;;;;;;5030545;28;20033;-74
2023/10/08 06:14:36;;;;;;;0.28;0.28;;;11.90;99.90;;;;;;5029763;28;20073;-75
2023/10/08 06:17:23;;;;;;;0.50;0.35;;;11.90;99.90;;;;;;5032523;28;20045;-74
2023/10/08 06:19:52;;;;;;;0.95;0.90;;;11.90;99.90;;;;;;5031274;28;20040;-74
2023/10/08 06:22:20;;;;;;;1.25;0.82;;;11.90;99.90;;;;;;5033759;28;20029;-75
2023/10/08 06:24:46;;;;;;;0.77;0.77;;;12.00;99.90;;;;;;5033902;28;20041;-74
2023/10/08 06:27:17;;;;;;;0.10;0.10;;;12.00;99.90;;;;;;5032066;28;20041;-74
2023/10/08 06:29:44;;;;;;;3.83;1.00;;;12.10;99.90;;;;;;5032937;28;20033;-74
2023/10/08 06:32:11;;;;;;;1.10;0.90;;;12.20;99.90;;;;;;5033424;28;20363;-74
2023/10/08 06:34:40;;;;;;;0.93;0.88;;;12.20;99.90;;;;;;5033267;28;20507;-74
2023/10/08 06:37:08;;;;;;;4.38;1.40;;;12.30;99.90;;;;;;5032312;28;20030;-74
2023/10/08 06:39:47;;;;;;;3.17;0.93;;;12.40;99.90;;;;;;5032393;28;20037;-74
2023/10/08 06:42:17;;;;;;;0.65;0.57;;;12.50;99.90;;;;;;5029175;28;20045;-75
2023/10/08 06:44:46;;;;;;;2.70;1.02;;;12.60;92.00;;;;;;5032759;28;20029;-75
2023/10/08 06:47:15;;;;;;;0.47;0.40;;;12.60;85.60;;;;;;5030369;28;20105;-75
2023/10/08 06:49:46;;;;;;;0.77;0.77;;;12.70;60.60;;;;;;5031060;28;20042;-76
2023/10/08 06:52:13;;;;;;;1.30;0.35;;;12.80;32.30;;;;;;5032628;28;20187;-74
2023/10/08 06:54:39;;;;;;;1.13;0.68;;;12.90;15.80;;;;;;5031964;28;20040;-74
2023/10/08 06:57:13;;;;;;;1.48;0.57;;;13.00;1.00;;;;;;5032177;28;20040;-75
2023/10/08 06:59:42;;;;;;;0.38;0.32;;;13.00;1.00;;;;;;5031636;28;20045;-73
2023/10/08 07:02:10;;;;;;;1.40;1.23;;;13.20;1.00;;;;;;5032390;28;20447;-73
2023/10/08 07:04:36;;;;;;;1.05;1.02;;;13.30;1.00;;;;;;5033125;28;20391;-73
2023/10/08 07:07:02;;;;;;;1.05;0.63;;;13.40;1.00;;;;;;5032342;28;20033;-73
2023/10/08 07:09:29;;;;;;;8.73;1.50;;;13.50;1.00;;;;;;5033404;28;20041;-72
2023/10/08 07:11:56;;;;;;;3.35;1.30;;;13.60;1.00;;;;;;5031107;28;20104;-72
2023/10/08 07:14:26;;;;;;;0.65;0.65;;;13.70;99.90;;;;;;5033372;28;20058;-74
2023/10/08 07:16:58;;;;;;;13.45;2.83;;;13.90;99.90;;;;;;5032795;28;20033;-74
2023/10/08 07:19:37;;;;;;;5.57;1.35;;;14.00;99.90;;;;;;5021643;28;20049;-73
2023/10/08 07:22:28;;;;;;;0.85;0.50;;;14.20;99.90;;;;;;5026984;28;20042;-73
2023/10/08 07:24:54;;;;;;;0.30;0.30;;;14.30;99.90;;;;;;5032621;28;20510;-79
2023/10/08 07:27:29;;;;;;;0.68;0.20;;;14.60;99.90;;;;;;5029688;28;20030;-73
2023/10/08 07:29:56;;;;;;;1.08;0.75;;;14.80;99.90;;;;;;5032249;28;20029;-75
2023/10/08 07:32:22;;;;;;;1.55;0.40;;;15.10;99.90;;;;;;5032384;28;20041;-75
2023/10/08 07:34:57;;;;;;;0.55;0.55;;;15.40;99.90;;;;;;5032862;28;20388;-73
2023/10/08 07:37:23;;;;;;;1.10;1.02;;;15.40;99.90;;;;;;5032570;28;20037;-73
2023/10/08 07:39:54;;;;;;;0.73;0.65;;;15.50;99.90;;;;;;5032439;28;20040;-72
2023/10/08 07:42:21;;;;;;;1.30;1.17;;;15.50;99.90;;;;;;5037191;28;20041;-72
2023/10/08 07:44:47;;;;;;;0.60;0.60;;;15.50;99.90;;;;;;5032682;28;20386;-72
2023/10/08 07:47:14;;;;;;;0.70;0.65;;;15.50;99.90;;;;;;5031655;28;20040;-73
2023/10/08 07:49:44;;;;;;;1.13;1.02;;;15.60;99.90;;;;;;5032385;28;20034;-72
2023/10/08 07:52:15;;;;;;;1.80;0.67;;;15.70;99.90;;;;;;5030602;28;20362;-73
2023/10/08 07:54:41;;;;;;;1.92;0.52;;;15.90;99.90;;;;;;5032555;28;20280;-74
2023/10/08 07:57:12;;;;;;;1.05;0.73;;;16.00;96.30;;;;;;5031986;28;20057;-76
2023/10/08 07:59:41;;;;;;;0.57;0.45;;;16.10;96.80;;;;;;5031874;28;20049;-74
2023/10/08 08:02:11;;;;;;;2.22;0.55;;;16.30;76.30;;;;;;5031391;28;20041;-73
2023/10/08 08:04:51;;;;;;;0.95;0.93;;;16.40;56.10;;;;;;5030772;28;20394;-73
2023/10/08 08:07:17;;;;;;;0.93;0.82;;;16.50;40.60;;;;;;5043729;28;20411;-74
2023/10/08 08:09:50;;;;;;;0.70;0.68;;;16.60;57.00;;;;;;5031817;28;20059;-74
2023/10/08 08:12:19;;;;;;;5.68;1.40;;;16.70;18.50;;;;;;5031529;28;20044;-73
2023/10/08 08:14:46;;;;;;;0.38;0.38;;;16.80;6.00;;;;;;5032037;28;20034;-74
2023/10/08 08:17:14;;;;;;;1.15;1.05;;;16.70;1.00;;;;;;5031351;28;20029;-75
2023/10/08 08:19:44;;;;;;;0.30;0.30;;;16.70;3.40;;;;;;5030817;28;20033;-74
2023/10/08 08:22:15;;;;;;;1.50;0.90;;;16.70;12.80;;;;;;5031522;28;20045;-73
2023/10/08 08:24:44;;;;;;;0.38;0.38;;;16.70;20.80;;;;;;5031310;28;20025;-73
2023/10/08 08:27:23;;;;;;;0.50;0.40;;;16.80;26.40;;;;;;5028701;28;20026;-73
2023/10/08 08:29:55;;;;;;;0.35;0.35;;;16.80;16.00;;;;;;5030664;28;20037;-73
2023/10/08 08:32:23;;;;;;;1.27;0.40;;;16.90;11.60;;;;;;5030284;28;20370;-75
2023/10/08 08:34:52;;;;;;;0.65;0.65;;;16.90;4.60;;;;;;5030861;28;20025;-75
2023/10/08 08:37:22;;;;;;;0.55;0.35;;;16.90;1.00;;;;;;5028966;28;20505;-74
2023/10/08 08:39:49;;;;;;;1.65;1.08;;;16.80;1.00;;;;;;5030816;28;20046;-74
2023/10/08 08:42:19;;;;;;;1.58;1.20;;;16.80;11.80;;;;;;5029990;28;20040;-74
2023/10/08 08:44:47;;;;;;;3.03;0.20;;;16.80;13.70;;;;;;5031403;28;20041;-74
2023/10/08 08:47:20;;;;;;;1.13;0.30;;;16.80;5.90;;;;;;5030773;28;20029;-74
2023/10/08 08:49:47;;;;;;;0.60;0.60;;;16.90;13.90;;;;;;5031315;28;20041;-73
2023/10/08 08:52:14;;;;;;;0.40;0.40;;;16.90;1.00;;;;;;5030758;28;20030;-75
2023/10/08 08:54:44;;;;;;;1.10;0.73;;;16.90;1.00;;;;;;5031378;28;20044;-74
2023/10/08 08:57:13;;;;;;;0.30;0.30;;;16.90;1.00;;;;;;5020869;28;20052;-74
2023/10/08 08:59:58;;;;;;;0.53;0.33;;;17.00;8.00;;;;;;5029710;28;20296;-74
2023/10/08 09:02:24;;;;;;;0.32;0.32;;;17.20;1.00;;;;;;5028386;28;20041;-74
2023/10/08 09:04:50;;;;;;;0.95;0.90;;;17.30;1.00;;;;;;5030921;28;20116;-74
2023/10/08 09:07:23;;;;;;;0.75;0.70;;;17.30;1.00;;;;;;5030289;28;20036;-75
2023/10/08 09:09:49;;;;;;;9.30;1.58;;;17.40;1.00;;;;;;5030171;28;20033;-73
2023/10/08 09:12:21;;;;;;;2.10;1.55;;;17.30;1.00;;;;;;5030333;28;20044;-74
2023/10/08 09:14:47;;;;;;;0.60;0.55;;;17.30;1.00;;;;;;5031112;28;20076;-74
2023/10/08 09:17:16;;;;;;;1.73;0.70;;;17.30;1.00;;;;;;5030270;28;20030;-73
2023/10/08 09:19:43;;;;;;;1.15;0.98;;;17.30;1.00;;;;;;5030867;28;20034;-73
2023/10/08 09:22:11;;;;;;;0.57;0.55;;;17.40;1.00;;;;;;5029769;28;20037;-72
2023/10/08 09:24:39;;;;;;;0.25;0.25;;;17.40;1.00;;;;;;5030925;28;20056;-73
2023/10/08 09:27:13;;;;;;;0.25;0.25;;;17.40;1.00;;;;;;5030283;28;20026;-75
2023/10/08 09:29:41;;;;;;;0.73;0.73;;;17.50;1.00;;;;;;5031029;28;20049;-74
2023/10/08 09:32:11;;;;;;;0.60;0.60;;;17.60;1.00;;;;;;5029631;28;20053;-73
2023/10/08 09:34:37;;;;;;;;;;;17.70;1.00;;;;;;5031431;28;20520;-74
2023/10/08 09:37:04;;;;;;;1.27;0.80;;;17.80;1.00;;;;;;5030254;28;19905;-76
2023/10/08 09:39:34;;;;;;;5.93;1.40;;;17.80;1.00;;;;;;5029976;28;20033;-73
2023/10/08 09:42:02;;;;;;;0.52;0.30;;;17.90;1.00;;;;;;5030014;28;20040;-73
2023/10/08 09:44:30;;;;;;;0.22;0.22;;;17.90;1.00;;;;;;5028719;28;20403;-73
2023/10/08 09:47:04;;;;;;;0.30;0.30;;;17.90;1.00;;;;;;5030382;28;20040;-74
2023/10/08 09:49:41;;;;;;;0.55;0.55;;;18.00;1.00;;;;;;5030488;28;20030;-73
2023/10/08 09:52:10;;;;;;;1.15;0.88;;;18.00;1.00;;;;;;5033661;28;20042;-75
2023/10/08 09:54:44;;;;;;;0.55;0.52;;;18.10;1.00;;;;;;5034624;28;20045;-74
2023/10/08 09:57:11;;;;;;;0.82;0.82;;;18.30;1.00;;;;;;5033323;28;20501;-75
2023/10/08 09:59:41;;;;;;;0.47;0.47;;;18.30;1.00;;;;;;5034347;28;20107;-73
2023/10/08 10:02:10;;;;;;;0.70;0.35;;;18.30;1.00;;;;;;5033886;28;20045;-73
2023/10/08 10:04:44;;;;;;;0.57;0.57;;;18.40;1.00;;;;;;5034241;28;20052;-74
2023/10/08 10:07:16;;;;;;;0.55;0.35;;;18.50;1.00;;;;;;5033491;28;20413;-74
2023/10/08 10:09:49;;;;;;;0.20;0.20;;;18.70;1.00;;;;;;5033386;28;20026;-74
2023/10/08 10:12:25;;;;;;;0.63;0.63;;;18.80;1.00;;;;;;5032528;28;20038;-73
2023/10/08 10:14:55;;;;;;;1.17;0.57;;;18.90;1.00;;;;;;5032134;28;20044;-73
2023/10/08 10:17:25;;;;;;;1.75;0.65;;;19.00;1.00;;;;;;5033831;28;20040;-73
2023/10/08 10:19:54;;;;;;;0.50;0.45;;;19.10;1.00;;;;;;5033306;28;20037;-73
2023/10/08 10:22:32;;;;;;;1.17;0.85;;;19.20;1.00;;;;;;5032618;28;20398;-73
2023/10/08 10:25:03;;;;;;;0.43;0.35;;;19.20;1.00;;;;;;5032385;28;20029;-75
2023/10/08 10:27:30;;;;;;;0.38;0.38;;;19.40;1.00;;;;;;5033301;28;20036;-75
2023/10/08 10:30:12;;;;;;;0.55;0.50;;;19.40;1.00;;;;;;5034024;28;20049;-74
2023/10/08 10:32:39;;;;;;;0.40;0.40;;;19.50;1.00;;;;;;5033818;28;20042;-74
2023/10/08 10:35:11;;;;;;;0.57;0.40;;;19.50;1.00;;;;;;5033445;28;20495;-80
2023/10/08 10:37:52;;;;;;;0.43;0.30;;;19.60;1.00;;;;;;5033514;28;20034;-73
2023/10/08 10:40:29;;;;;;;0.85;0.32;;;19.80;1.00;;;;;;5032794;28;20052;-73
2023/10/08 10:43:01;;;;;;;5.82;0.60;;;19.80;1.00;;;;;;5033683;28;20497;-74
2023/10/08 10:45:36;;;;;;;11.98;1.40;;;19.90;1.00;;;;;;5033386;28;20053;-73
2023/10/08 10:53:44;;;;;;;0.75;0.73;;;20.20;1.00;;;;;;5032251;28;20418;-74
2023/10/08 10:56:18;;;;;;;0.52;0.50;;;20.30;99.90;;;;;;5032034;28;20033;-73
2023/10/08 10:58:53;;;;;;;11.60;1.50;;;20.30;1.00;;;;;;5032693;28;20086;-74
2023/10/08 11:01:29;;;;;;;1.13;1.10;;;20.30;1.00;;;;;;5031833;28;20044;-74
2023/10/08 11:03:59;;;;;;;2.92;1.02;;;20.40;1.00;;;;;;5032164;28;20386;-73
2023/10/08 11:06:26;;;;;;;5.32;1.02;;;20.30;99.90;;;;;;5031548;28;20414;-73
2023/10/08 11:08:53;;;;;;;0.28;0.28;;;20.30;1.00;;;;;;5030276;28;20427;-74
2023/10/08 11:11:29;;;;;;;0.98;0.68;;;20.40;1.00;;;;;;5020988;28;20037;-77
2023/10/08 11:14:00;;;;;;;10.77;1.65;;;20.60;99.90;;;;;;5029457;28;20471;-76
2023/10/08 11:16:26;;;;;;;5.38;0.90;;;20.70;99.90;;;;;;5024763;28;20495;-74
2023/10/08 11:18:57;;;;;;;0.57;0.30;;;20.70;99.90;;;;;;5026855;28;20033;-74
2023/10/08 11:21:25;;;;;;;0.70;0.70;;;20.40;99.90;;;;;;5027965;28;20041;-73
2023/10/08 11:23:53;;;;;;;0.60;0.60;;;20.30;1.00;;;;;;5031111;28;20121;-75
2023/10/08 11:26:21;;;;;;;1.40;0.73;;;20.40;1.00;;;;;;5027679;28;20044;-73
2023/10/08 11:28:47;;;;;;;0.82;0.75;;;20.60;99.90;;;;;;5029178;28;20034;-75
2023/10/08 11:31:19;;;;;;;0.60;0.55;;;20.70;99.90;;;;;;5028970;28;20089;-74
2023/10/08 11:33:55;;;;;;;1.73;0.50;;;20.90;99.90;;;;;;5028562;28;20037;-73
2023/10/08 11:36:29;;;;;;;0.82;0.82;;;20.70;99.90;;;;;;5027708;28;20037;-74
2023/10/08 11:39:06;;;;;;;1.38;0.98;;;20.80;99.90;;;;;;5028437;28;20029;-75
2023/10/08 11:41:44;;;;;;;1.48;1.10;;;20.80;99.90;;;;;;5029945;28;20045;-74
2023/10/08 11:44:13;;;;;;;0.45;0.45;;;20.90;99.90;;;;;;5029476;28;20394;-75
2023/10/08 11:46:39;;;;;;;0.93;0.93;;;21.00;99.90;;;;;;5030856;28;20037;-75
2023/10/08 11:49:06;;;;;;;0.73;0.73;;;21.10;99.90;;;;;;5031215;28;20453;-75
2023/10/08 11:51:35;;;;;;;0.47;0.45;;;21.00;99.90;;;;;;5028876;28;20112;-73
2023/10/08 11:54:02;;;;;;;2.80;1.80;;;21.00;99.90;;;;;;5030783;28;20037;-73
2023/10/08 11:56:29;;;;;;;0.75;0.55;;;21.10;99.90;;;;;;5028351;28;20487;-73
2023/10/08 11:58:56;;;;;;;0.60;0.60;;;21.30;99.90;;;;;;5030316;28;20034;-72
2023/10/08 12:01:24;;;;;;;1.35;1.15;;;21.50;99.90;;;;;;5029703;28;20033;-73
2023/10/08 12:03:50;;;;;;;1.45;1.23;;;21.50;99.90;;;;;;5027954;28;20045;-73
2023/10/08 12:06:21;;;;;;;0.28;0.28;;;21.60;99.90;;;;;;5030968;28;20044;-73
2023/10/08 12:08:53;;;;;;;6.30;1.65;;;21.60;99.90;;;;;;5030343;28;20045;-74
2023/10/08 12:11:22;;;;;;;0.70;0.55;;;21.60;99.90;;;;;;5029507;28;20376;-74
2023/10/08 12:13:49;;;;;;;1.67;1.13;;;21.50;99.90;;;;;;5029258;28;20033;-74
2023/10/08 12:16:22;;;;;;;0.30;0.30;;;21.50;99.90;;;;;;5030262;28;20037;-73
2023/10/08 12:18:53;;;;;;;1.27;1.17;;;21.60;99.90;;;;;;5028606;28;20382;-73
2023/10/08 12:21:21;;;;;;;1.40;0.82;;;21.80;99.90;;;;;;5027846;28;20025;-74
2023/10/08 12:23:47;;;;;;;2.28;1.20;;;21.90;99.90;;;;;;5029074;28;20378;-73
2023/10/08 12:26:18;;;;;;;1.25;0.65;;;21.80;99.90;;;;;;5030480;28;20037;-73
2023/10/08 12:28:48;;;;;;;7.70;1.58;;;21.90;99.90;;;;;;5029380;28;20041;-74
2023/10/08 12:31:28;;;;;;;0.28;0.28;;;21.90;99.90;;;;;;5028365;28;20041;-73
2023/10/08 12:33:57;;;;;;;;;;;22.00;99.90;;;;;;5031590;28;20359;-74
2023/10/08 12:36:23;;;;;;;2.00;1.00;;;22.10;99.90;;;;;;5027635;28;19913;-75
2023/10/08 12:38:57;;;;;;;0.90;0.90;;;21.90;99.90;;;;;;5031068;28;20034;-73
2023/10/08 12:41:26;;;;;;;1.38;0.82;;;22.00;99.90;;;;;;5029356;28;20041;-74
2023/10/08 12:43:53;;;;;;;1.05;1.02;;;22.00;99.90;;;;;;5029170;28;20492;-74
2023/10/08 12:46:30;;;;;;;1.52;1.10;;;22.20;99.90;;;;;;5028536;28;20089;-74
2023/10/08 12:48:58;;;;;;;4.18;1.45;;;22.20;99.90;;;;;;5030442;28;20052;-73
2023/10/08 12:51:25;;;;;;;0.50;0.50;;;22.40;99.90;;;;;;5025444;28;20049;-73
2023/10/08 12:54:03;;;;;;;0.52;0.40;;;22.40;99.90;;;;;;5030965;28;20025;-73
2023/10/08 12:56:38;;;;;;;1.02;0.80;;;22.50;99.90;;;;;;5029500;28;20041;-74
2023/10/08 12:59:06;;;;;;;0.50;0.50;;;22.60;99.90;;;;;;5030518;28;20049;-73
2023/10/08 13:01:40;;;;;;;1.08;1.08;;;22.70;99.90;;;;;;5030719;28;20379;-75
2023/10/08 13:04:07;;;;;;;1.13;0.65;;;22.80;99.90;;;;;;5028475;28;20045;-73
2023/10/08 13:06:37;;;;;;;2.95;0.50;;;22.80;99.90;;;;;;5030196;28;20029;-73
2023/10/08 13:09:12;;;;;;;2.50;1.02;;;22.70;99.90;;;;;;5028873;28;20045;-75
2023/10/08 13:11:39;;;;;;;1.95;0.40;;;22.70;99.90;;;;;;5027846;28;20025;-73
2023/10/08 13:14:06;;;;;;;0.65;0.65;;;22.50;99.90;;;;;;5027849;28;20057;-74
2023/10/08 13:16:32;;;;;;;1.48;1.25;;;22.60;99.90;;;;;;5028525;28;20030;-74
2023/10/08 13:18:59;;;;;;;0.50;0.50;;;22.70;99.90;;;;;;5028164;28;20037;-73
2023/10/08 13:21:27;;;;;;;0.82;0.82;;;22.70;99.90;;;;;;5027834;28;20044;-73
2023/10/08 13:23:56;;;;;;;1.73;1.27;;;22.80;99.90;;;;;;5028542;28;20041;-73
2023/10/08 13:26:24;;;;;;;0.83;0.73;;;22.80;99.90;;;;;;5026371;28;20040;-75
2023/10/08 13:28:51;;;;;;;1.17;0.50;;;22.80;99.90;;;;;;5027682;28;20781;-74
2023/10/08 13:31:19;;;;;;;3.83;1.38;;;22.60;99.90;;;;;;5027705;28;20056;-73
2023/10/08 13:33:48;;;;;;;0.90;0.82;;;22.50;99.90;;;;;;5027294;28;20755;-74
2023/10/08 13:36:16;;;;;;;0.38;0.38;;;22.50;99.90;;;;;;5027744;28;20033;-78
2023/10/08 13:38:43;;;;;;;0.30;0.30;;;22.60;99.90;;;;;;5025299;28;20041;-73
2023/10/08 13:41:15;;;;;;;2.67;0.85;;;22.60;99.90;;;;;;5026203;28;20037;-73
2023/10/08 13:43:45;;;;;;;0.90;0.73;;;22.60;99.90;;;;;;5025381;28;20451;-73
2023/10/08 13:46:22;;;;;;;2.55;1.65;;;22.70;99.90;;;;;;5028497;28;20034;-75
2023/10/08 13:48:49;;;;;;;1.17;1.08;;;22.80;99.90;;;;;;5025895;28;20041;-73
2023/10/08 13:51:20;;;;;;;1.75;1.20;;;22.80;99.90;;;;;;5026885;28;20029;-79
2023/10/08 13:53:59;;;;;;;1.98;1.10;;;22.80;99.90;;;;;;5028478;28;20042;-75